Time;durP1;ratioP1;P1;durP2;ratioP2;P2;SDS_P1;SDS_P2;PMS_P1;PMS_P2;Temp;Humidity;BMP_temperature;BMP_pressure;BME280_temperature;BME280_humidity;BME280_pressure;Samples;Min_cycle;Max_cycle;Signal;HPM_P1;HPM_P2
2020/12/12 00:01:49;;;;;;;41.93;21.10;;;;;;;-2.86;82.45;100385.45;1694586;84;21605;-76
2020/12/12 00:04:18;;;;;;;44.00;20.53;;;;;;;-2.82;82.42;100379.95;1692355;84;21542;-75
2020/12/12 00:06:45;;;;;;;43.60;21.43;;;;;;;-2.81;82.45;100381.25;1694789;84;22343;-77
2020/12/12 00:09:23;;;;;;;42.57;20.27;;;;;;;-2.79;82.36;100386.02;1710998;83;21171;-79
2020/12/12 00:11:53;;;;;;;47.13;20.90;;;;;;;-2.79;82.20;100374.42;1723867;83;21174;-76
2020/12/12 00:14:21;;;;;;;43.93;19.60;;;;;;;-2.80;82.38;100367.97;1723790;83;21166;-76
2020/12/12 00:16:53;;;;;;;43.57;20.47;;;;;;;-2.78;82.35;100377.47;1721005;83;21625;-76
2020/12/12 00:19:21;;;;;;;50.97;21.97;;;;;;;-2.78;82.45;100372.31;1723880;83;22212;-75
2020/12/12 00:21:54;;;;;;;43.83;19.87;;;;;;;-2.75;82.52;100380.53;1720958;83;21130;-77
2020/12/12 00:24:21;;;;;;;45.07;19.67;;;;;;;-2.75;82.49;100373.66;1723798;83;21194;-78
2020/12/12 00:26:49;;;;;;;47.07;21.23;;;;;;;-2.75;82.62;100369.79;1721162;83;22102;-75
2020/12/12 00:29:17;;;;;;;42.87;19.93;;;;;;;-2.75;82.59;100371.08;1721257;83;21570;-75
2020/12/12 00:31:45;;;;;;;44.53;19.90;;;;;;;-2.72;82.68;100361.67;1727720;82;22338;-76
2020/12/12 00:34:14;;;;;;;47.70;20.57;;;;;;;-2.71;82.75;100364.30;1747240;82;21985;-77
2020/12/12 00:36:43;;;;;;;44.30;19.80;;;;;;;-2.70;82.64;100357.42;1747268;82;21164;-75
2020/12/12 00:39:10;;;;;;;44.53;20.40;;;;;;;-2.70;82.64;100357.42;1747835;82;21658;-78
2020/12/12 00:41:39;;;;;;;49.43;21.80;;;;;;;-2.68;82.61;100350.16;1750485;82;21643;-77
2020/12/12 00:44:07;;;;;;;39.57;17.27;;;;;;;-2.66;82.72;100353.64;1748655;82;21520;-74
2020/12/12 00:46:42;;;;;;;43.03;21.17;;;;;;;-2.66;82.64;100353.64;1747347;82;21123;-75
2020/12/12 00:51:27;;;;;;;36.23;17.23;;;;;;;-2.58;82.62;100352.50;1816512;79;22795;-75
2020/12/12 00:53:54;;;;;;;49.53;20.70;;;;;;;-2.60;82.55;100349.02;1789631;80;21184;-75
2020/12/12 00:56:22;;;;;;;46.03;20.73;;;;;;;-2.59;82.60;100343.04;1789490;80;21588;-76
2020/12/12 00:58:51;;;;;;;42.87;21.37;;;;;;;-2.60;82.49;100339.59;1784214;80;21508;-77
2020/12/12 01:01:18;;;;;;;51.17;22.30;;;;;;;-2.59;82.54;100336.59;1772230;80;21157;-76
2020/12/12 01:03:49;;;;;;;45.73;20.77;;;;;;;-2.59;82.61;100330.15;1758305;81;21192;-76
2020/12/12 01:06:18;;;;;;;48.78;21.85;;;;;;;-2.60;82.56;100328.39;1758577;81;21623;-75
2020/12/12 01:08:46;;;;;;;41.73;17.70;;;;;;;-2.61;82.57;100326.66;1758344;80;21880;-75
2020/12/12 01:11:15;;;;;;;46.70;18.73;;;;;;;-2.59;82.49;100330.15;1758231;81;21192;-75
2020/12/12 01:13:42;;;;;;;45.27;18.83;;;;;;;-2.61;82.62;100334.40;1729002;81;21636;-76
2020/12/12 01:16:15;;;;;;;42.47;18.43;;;;;;;-2.59;82.53;100330.15;1758236;81;22346;-77
2020/12/12 01:18:43;;;;;;;49.13;20.23;;;;;;;-2.59;82.54;100336.59;1758295;81;21118;-75
2020/12/12 01:21:16;;;;;;;49.57;22.57;;;;;;;-2.59;82.62;100339.17;1758240;81;22076;-75
2020/12/12 01:23:45;;;;;;;40.00;18.25;;;;;;;-2.62;82.66;100333.54;1758241;81;21178;-74
2020/12/12 01:26:13;;;;;;;40.23;19.65;;;;;;;-2.63;82.75;100340.80;1758230;81;21129;-74
2020/12/12 01:28:41;;;;;;;40.23;19.80;;;;;;;-2.63;82.64;100342.52;1758177;81;21213;-73
2020/12/12 01:31:15;;;;;;;46.00;19.90;;;;;;;-2.63;82.64;100337.36;1758375;81;21589;-74
2020/12/12 01:33:43;;;;;;;36.73;19.13;;;;;;;-2.66;82.50;100333.45;1758185;81;21881;-74
2020/12/12 01:36:12;;;;;;;38.80;19.03;;;;;;;-2.68;82.36;100325.67;1758337;81;21167;-75
2020/12/12 01:38:39;;;;;;;38.57;19.23;;;;;;;-2.70;82.17;100332.50;1758034;80;21584;-73
2020/12/12 01:41:07;;;;;;;44.83;20.10;;;;;;;-2.71;82.32;100333.36;1758225;81;21200;-74
2020/12/12 01:43:35;;;;;;;34.23;16.23;;;;;;;-2.73;82.40;100343.19;1758345;81;21183;-73
2020/12/12 01:46:03;;;;;;;46.00;20.67;;;;;;;-2.80;81.99;100336.61;1758169;80;21846;-74
2020/12/12 01:48:31;;;;;;;47.50;19.40;;;;;;;-2.82;81.95;100342.16;1758290;81;21180;-75
2020/12/12 01:50:58;;;;;;;50.13;20.70;;;;;;;-2.82;81.98;100334.84;1740402;80;21187;-74
2020/12/12 01:53:26;;;;;;;43.35;20.45;;;;;;;-2.86;81.91;100339.05;1730583;82;21163;-75
2020/12/12 01:55:54;;;;;;;40.63;20.67;;;;;;;-2.89;81.94;100332.56;1731079;82;21202;-74
2020/12/12 01:58:22;;;;;;;44.40;21.35;;;;;;;-2.89;82.07;100332.56;1731094;82;21174;-74
2020/12/12 02:00:49;;;;;;;52.20;21.83;;;;;;;-2.91;82.04;100331.66;1730713;81;21591;-74
2020/12/12 02:03:18;;;;;;;36.73;18.20;;;;;;;-2.90;82.11;100338.96;1730633;82;21191;-74
2020/12/12 02:05:48;;;;;;;40.60;18.47;;;;;;;-2.94;81.91;100330.31;1699997;82;21653;-75
2020/12/12 02:08:18;;;;;;;45.77;19.50;;;;;;;-2.95;81.92;100340.16;1739838;80;21622;-73
2020/12/12 02:10:50;;;;;;;36.83;17.27;;;;;;;-2.97;81.96;100330.23;1781412;80;21211;-74
2020/12/12 02:13:18;;;;;;;40.20;18.83;;;;;;;-2.98;81.80;100333.66;1781499;80;21183;-74
2020/12/12 02:15:47;;;;;;;41.43;20.60;;;;;;;-2.97;82.01;100335.37;1781450;80;21167;-72
2020/12/12 02:18:20;;;;;;;39.53;17.97;;;;;;;-3.00;82.11;100337.91;1781659;80;21637;-70
2020/12/12 02:21:00;;;;;;;39.87;18.60;;;;;;;-3.01;81.79;100333.60;1781597;80;21143;-77
2020/12/12 02:23:28;;;;;;;37.17;17.13;;;;;;;-3.06;81.86;100323.20;1781507;80;21583;-77
2020/12/12 02:25:56;;;;;;;40.60;15.43;;;;;;;-3.07;82.00;100331.75;1781415;80;21590;-72
2020/12/12 02:28:38;;;;;;;38.63;16.07;;;;;;;-3.06;81.94;100341.63;1781555;80;21159;-73
2020/12/12 02:31:02;;;;;;;36.73;17.55;;;;;;;-3.10;81.67;100334.27;1780983;80;22296;-72
2020/12/12 02:33:30;;;;;;;41.93;19.63;;;;;;;-3.13;81.72;100332.03;1781381;80;21171;-73
2020/12/12 02:35:58;;;;;;;39.13;17.27;;;;;;;-3.12;81.94;100331.21;1781621;80;22264;-71
2020/12/12 02:38:26;;;;;;;38.27;17.03;;;;;;;-3.14;81.99;100323.87;1781487;80;21131;-73
2020/12/12 02:40:55;;;;;;;38.23;18.90;;;;;;;-3.18;81.94;100323.78;1781290;80;21215;-73
2020/12/12 02:43:26;;;;;;;38.15;17.73;;;;;;;-3.20;82.00;100329.73;1781706;80;21170;-72
2020/12/12 02:45:54;;;;;;;37.43;16.80;;;;;;;-3.24;82.17;100326.24;1781548;80;21174;-73
2020/12/12 02:48:22;;;;;;;43.60;19.10;;;;;;;-3.25;82.26;100334.78;1781365;80;21388;-71
2020/12/12 02:50:50;;;;;;;35.90;16.90;;;;;;;-3.25;82.43;100324.48;1755122;80;21187;-72
2020/12/12 02:53:19;;;;;;;39.67;17.40;;;;;;;-3.27;82.28;100327.44;1784185;80;21126;-72
2020/12/12 02:55:47;;;;;;;44.77;18.60;;;;;;;-3.28;82.24;100327.00;1784124;80;21614;-72
2020/12/12 02:58:14;;;;;;;38.30;17.83;;;;;;;-3.30;82.15;100327.39;1784361;80;21646;-72
2020/12/12 03:00:43;;;;;;;44.80;19.67;;;;;;;-3.33;82.20;100320.89;1784156;79;22285;-72
2020/12/12 03:03:11;;;;;;;40.30;18.07;;;;;;;-3.33;82.55;100323.89;1784179;80;21215;-73
2020/12/12 03:05:40;;;;;;;40.37;19.47;;;;;;;-3.36;82.34;100319.52;1784196;80;21118;-74
2020/12/12 03:08:08;;;;;;;39.77;16.20;;;;;;;-3.40;82.29;100308.72;1780212;80;21179;-73
2020/12/12 03:10:35;;;;;;;40.33;19.10;;;;;;;-3.40;82.50;100311.30;1753142;81;21139;-74
2020/12/12 03:13:03;;;;;;;41.40;19.53;;;;;;;-3.42;82.58;100306.09;1753130;81;22441;-74
2020/12/12 03:15:31;;;;;;;41.30;18.80;;;;;;;-3.45;82.73;100310.30;1753189;81;21616;-75
2020/12/12 03:17:58;;;;;;;35.80;17.43;;;;;;;-3.48;82.73;100302.52;1753216;81;21606;-73
2020/12/12 03:20:26;;;;;;;36.87;14.83;;;;;;;-3.49;82.72;100308.51;1753270;81;21617;-75
2020/12/12 03:22:54;;;;;;;40.77;18.20;;;;;;;-3.51;82.85;100314.04;1753276;81;21161;-73
2020/12/12 03:25:22;;;;;;;40.57;17.27;;;;;;;-3.56;82.93;100311.78;1753372;81;21274;-73
2020/12/12 03:27:50;;;;;;;45.03;19.03;;;;;;;-3.55;82.92;100316.09;1761275;81;22083;-73
2020/12/12 03:30:18;;;;;;;38.43;18.07;;;;;;;-3.59;82.81;100327.61;1763243;81;21163;-73
2020/12/12 03:32:47;;;;;;;40.63;17.63;;;;;;;-3.59;82.79;100318.59;1763068;81;21686;-73
2020/12/12 03:35:14;;;;;;;39.30;17.97;;;;;;;-3.60;82.72;100325.84;1763264;81;21183;-75
2020/12/12 03:37:42;;;;;;;36.63;15.70;;;;;;;-3.63;82.75;100319.36;1763148;80;22146;-74
2020/12/12 03:40:10;;;;;;;46.77;19.83;;;;;;;-3.65;82.74;100326.17;1763043;81;21184;-75
2020/12/12 03:42:38;;;;;;;33.37;16.07;;;;;;;-3.64;82.81;100327.03;1763052;81;21258;-74
2020/12/12 03:45:06;;;;;;;45.50;17.63;;;;;;;-3.64;82.85;100318.88;1763286;81;21599;-73
2020/12/12 03:47:33;;;;;;;32.77;15.60;;;;;;;-3.66;82.67;100315.83;1763158;81;21602;-74
2020/12/12 03:50:01;;;;;;;36.53;16.83;;;;;;;-3.67;82.83;100324.39;1763030;81;21643;-73
2020/12/12 03:52:29;;;;;;;40.70;16.43;;;;;;;-3.71;82.68;100324.72;1757598;81;21180;-73
2020/12/12 03:54:57;;;;;;;40.20;17.10;;;;;;;-3.72;82.72;100325.57;1757852;81;21604;-72
2020/12/12 03:57:24;;;;;;;38.97;18.80;;;;;;;-3.73;82.84;100317.38;1757707;81;21208;-74
2020/12/12 03:59:53;;;;;;;45.37;19.73;;;;;;;-3.74;82.87;100319.52;1757637;80;21188;-73
2020/12/12 04:02:21;;;;;;;46.27;18.20;;;;;;;-3.76;82.69;100327.61;1757474;80;21632;-73
2020/12/12 04:04:50;;;;;;;37.23;16.63;;;;;;;-3.78;82.79;100324.13;1757728;81;21184;-73
2020/12/12 04:07:19;;;;;;;45.23;18.93;;;;;;;-3.81;82.58;100324.06;1757754;81;21671;-72
2020/12/12 04:09:47;;;;;;;46.67;18.63;;;;;;;-3.85;82.64;100328.25;1757677;81;21652;-73
2020/12/12 04:12:15;;;;;;;35.63;15.87;;;;;;;-3.85;82.70;100323.11;1757803;81;21616;-73
2020/12/12 04:14:44;;;;;;;36.10;15.37;;;;;;;-3.88;82.41;100320.47;1757595;81;21637;-73
2020/12/12 04:17:12;;;;;;;37.67;17.00;;;;;;;-3.88;82.30;100328.19;1757723;81;21642;-73
2020/12/12 04:19:41;;;;;;;34.97;16.17;;;;;;;-3.90;82.30;100332.84;1757530;81;21590;-72
2020/12/12 04:22:13;;;;;;;40.17;16.73;;;;;;;-3.90;82.32;100330.28;1757590;81;21118;-75
2020/12/12 04:24:42;;;;;;;35.17;15.67;;;;;;;-3.91;82.12;100327.23;1757648;81;21169;-77
2020/12/12 04:27:10;;;;;;;35.57;15.67;;;;;;;-3.92;81.91;100325.50;1757697;81;22170;-77
2020/12/12 04:29:38;;;;;;;36.47;16.63;;;;;;;-3.93;81.99;100325.06;1757634;81;21650;-76
2020/12/12 04:32:08;;;;;;;39.87;16.80;;;;;;;-3.97;81.58;100322.81;1757532;81;21190;-74
2020/12/12 04:34:35;;;;;;;39.30;16.93;;;;;;;-3.98;81.35;100324.05;1757709;81;21565;-74
2020/12/12 04:37:04;;;;;;;37.93;16.90;;;;;;;-3.97;81.23;100325.81;1757613;81;21247;-74
2020/12/12 04:39:31;;;;;;;37.23;14.93;;;;;;;-3.99;80.73;100319.34;1757829;81;22273;-73
2020/12/12 04:41:59;;;;;;;32.73;15.23;;;;;;;-3.99;80.72;100315.90;1757761;81;21122;-74
2020/12/12 04:44:28;;;;;;;29.50;13.27;;;;;;;-4.02;80.15;100320.13;1757847;81;21134;-74
2020/12/12 04:46:56;;;;;;;35.13;15.53;;;;;;;-4.06;79.82;100328.59;1757742;81;21210;-75
2020/12/12 04:49:24;;;;;;;32.60;14.83;;;;;;;-4.09;79.82;100319.53;1728669;81;21170;-74
2020/12/12 04:51:53;;;;;;;35.93;15.20;;;;;;;-4.16;79.25;100311.20;1757642;81;22281;-74
2020/12/12 04:54:21;;;;;;;32.37;15.60;;;;;;;-4.17;79.54;100313.31;1757776;81;21175;-73
2020/12/12 04:56:49;;;;;;;35.97;17.00;;;;;;;-4.23;79.43;100311.89;1757576;81;21162;-74
2020/12/12 04:59:21;;;;;;;34.30;16.43;;;;;;;-4.24;79.77;100319.13;1757914;81;21126;-74
2020/12/12 05:01:49;;;;;;;38.60;17.03;;;;;;;-4.30;79.71;100307.39;1704611;81;21610;-75
2020/12/12 05:04:17;;;;;;;36.90;15.27;;;;;;;-4.27;79.70;100319.06;1728300;81;22819;-75
2020/12/12 05:06:45;;;;;;;32.50;15.80;;;;;;;-4.30;79.50;100307.39;1757720;81;21185;-72
2020/12/12 05:09:14;;;;;;;29.97;13.60;;;;;;;-4.29;79.74;100319.43;1736664;81;21442;-73
2020/12/12 05:11:47;;;;;;;32.00;14.37;;;;;;;-4.31;79.58;100308.23;1721512;83;21578;-74
2020/12/12 05:14:16;;;;;;;34.60;15.50;;;;;;;-4.33;79.38;100308.61;1694542;83;21706;-73
2020/12/12 05:16:45;;;;;;;33.73;14.93;;;;;;;-4.38;79.37;100314.05;1721633;83;22273;-72
2020/12/12 05:19:13;;;;;;;29.03;16.10;;;;;;;-4.43;79.40;100317.36;1721663;83;21627;-71
2020/12/12 05:21:49;;;;;;;29.17;15.13;;;;;;;-4.43;79.49;100317.36;1721578;83;21728;-71
2020/12/12 05:24:16;;;;;;;30.53;15.27;;;;;;;-4.44;79.36;100313.06;1721711;83;21154;-75
2020/12/12 05:26:44;;;;;;;33.07;14.33;;;;;;;-4.44;79.64;100300.21;1721496;83;21191;-75
2020/12/12 05:29:14;;;;;;;31.10;15.47;;;;;;;-4.45;79.66;100293.73;1721685;83;21217;-75
2020/12/12 05:31:43;;;;;;;32.17;15.20;;;;;;;-4.43;79.99;100304.52;1721469;83;21178;-75
2020/12/12 05:34:15;;;;;;;36.33;17.00;;;;;;;-4.43;79.89;100290.37;1721591;83;21171;-75
2020/12/12 05:36:44;;;;;;;31.63;14.67;;;;;;;-4.40;79.84;100297.70;1721550;83;21186;-78
2020/12/12 05:39:14;;;;;;;34.30;16.65;;;;;;;-4.43;79.44;100296.80;1721975;83;21159;-74
2020/12/12 05:41:42;;;;;;;30.73;14.60;;;;;;;-4.47;79.52;100284.69;1721662;83;21527;-74
2020/12/12 05:44:10;;;;;;;31.10;15.10;;;;;;;-4.47;79.53;100310.39;1721636;81;21686;-74
2020/12/12 05:46:38;;;;;;;35.93;11.97;;;;;;;-4.48;79.54;100295.81;1721654;83;21655;-76
2020/12/12 05:49:07;;;;;;;29.03;13.40;;;;;;;-4.49;79.41;100295.34;1721600;83;21675;-77
2020/12/12 05:51:34;;;;;;;38.17;18.83;;;;;;;-4.48;79.50;100292.38;1723603;83;21242;-77
2020/12/12 05:54:02;;;;;;;35.27;17.03;;;;;;;-4.48;79.72;100289.39;1677525;83;22110;-76
2020/12/12 05:56:33;;;;;;;28.03;13.87;;;;;;;-4.47;79.36;100293.69;1726970;83;21328;-76
2020/12/12 05:59:01;;;;;;;38.57;17.37;;;;;;;-4.47;79.35;100289.83;1727060;83;21650;-76
2020/12/12 06:01:30;;;;;;;42.53;18.10;;;;;;;-4.48;79.29;100288.10;1726986;83;21171;-76
2020/12/12 06:04:10;;;;;;;41.35;20.32;;;;;;;-4.47;79.25;100283.41;1727404;83;21210;-76
2020/12/12 06:06:45;;;;;;;39.27;18.87;;;;;;;-4.45;79.32;100280.45;1727247;83;21432;-76
2020/12/12 06:09:15;;;;;;;38.60;17.40;;;;;;;-4.41;79.21;100285.70;1727188;83;21288;-75
2020/12/12 06:11:45;;;;;;;38.13;19.47;;;;;;;-4.39;79.22;100286.58;1727258;83;21174;-76
2020/12/12 06:14:13;;;;;;;43.25;20.57;;;;;;;-4.34;79.32;100288.88;1727347;83;21121;-74
2020/12/12 06:16:42;;;;;;;46.53;20.00;;;;;;;-4.37;78.95;100296.11;1727243;83;21626;-74
2020/12/12 06:19:13;;;;;;;44.07;19.13;;;;;;;-4.37;78.98;100290.06;1727244;83;21388;-75
2020/12/12 06:21:49;;;;;;;36.93;17.10;;;;;;;-4.36;78.96;100284.11;1727065;83;21182;-73
2020/12/12 06:24:19;;;;;;;41.00;18.93;;;;;;;-4.35;79.03;100280.70;1727263;83;21119;-75
2020/12/12 06:26:58;;;;;;;41.40;20.20;;;;;;;-4.35;79.13;100288.41;1727100;83;21190;-74
2020/12/12 06:29:28;;;;;;;38.23;18.77;;;;;;;-4.33;79.13;100295.33;1757587;81;21164;-72
2020/12/12 06:31:56;;;;;;;43.00;21.23;;;;;;;-4.31;79.10;100290.23;1763110;81;21605;-73
2020/12/12 06:34:51;;;;;;;39.70;19.27;;;;;;;-4.31;79.17;100281.23;1763136;81;21582;-74
2020/12/12 06:37:39;;;;;;;43.53;20.23;;;;;;;-4.29;79.08;100286.00;1763108;80;21682;-71
2020/12/12 06:40:12;;;;;;;43.87;20.67;;;;;;;-4.28;79.22;100286.45;1762825;81;21160;-71
2020/12/12 06:42:47;;;;;;;45.63;21.23;;;;;;;-4.24;79.45;100283.12;1763081;81;21599;-71
2020/12/12 06:45:23;;;;;;;51.60;21.27;;;;;;;-4.23;79.40;100281.03;1763034;81;22246;-71
2020/12/12 06:47:54;;;;;;;47.13;24.00;;;;;;;-4.20;79.25;100282.38;1761864;80;21171;-71
2020/12/12 06:50:33;;;;;;;49.20;20.33;;;;;;;-4.18;79.52;100286.28;1765981;80;21210;-73
2020/12/12 06:53:05;;;;;;;41.42;19.45;;;;;;;-4.18;79.50;100275.58;1739377;81;21173;-72
2020/12/12 06:55:34;;;;;;;45.40;20.57;;;;;;;-4.16;79.39;100275.20;1705448;82;21585;-71
2020/12/12 06:58:02;;;;;;;55.20;23.23;;;;;;;-4.16;79.08;100276.88;1733522;82;21424;-72
2020/12/12 07:00:33;;;;;;;39.33;19.17;;;;;;;-4.18;79.21;100260.14;1706694;82;21209;-73
2020/12/12 07:03:03;;;;;;;45.87;19.53;;;;;;;-4.19;79.20;100269.96;1733736;82;21194;-71
2020/12/12 07:05:35;;;;;;;56.50;23.57;;;;;;;-4.18;79.15;100260.14;1735058;82;21193;-72
2020/12/12 07:08:05;;;;;;;51.95;24.15;;;;;;;-4.15;79.38;100266.64;1735197;82;21190;-70
2020/12/12 07:10:33;;;;;;;56.20;25.80;;;;;;;-4.16;79.50;100272.62;1735117;81;21453;-71
2020/12/12 07:13:01;;;;;;;50.60;23.03;;;;;;;-4.14;79.61;100262.36;1735028;82;21162;-72
2020/12/12 07:15:33;;;;;;;60.60;23.00;;;;;;;-4.16;79.46;100263.63;1735153;82;21178;-71
2020/12/12 07:18:11;;;;;;;55.23;24.40;;;;;;;-4.11;79.41;100264.60;1735215;82;21625;-71
2020/12/12 07:20:57;;;;;;;;;;;;;;;;;;;;;
2020/12/12 07:23:22;;;;;;;48.97;23.80;;;;;;;-4.04;79.45;100257.48;1811375;77;22742;-72
2020/12/12 07:25:51;;;;;;;50.20;22.70;;;;;;;-4.08;79.45;100253.52;1777576;80;21108;-72
2020/12/12 07:28:19;;;;;;;49.33;24.23;;;;;;;-4.06;79.59;100250.14;1782426;80;21599;-71
2020/12/12 07:30:47;;;;;;;55.07;22.43;;;;;;;-4.05;79.28;100249.33;1782451;80;22359;-71
2020/12/12 07:33:15;;;;;;;46.10;20.67;;;;;;;-4.06;79.31;100238.98;1782427;80;21135;-72
2020/12/12 07:35:44;;;;;;;40.73;18.83;;;;;;;-4.06;79.25;100250.14;1782615;80;21606;-70
2020/12/12 07:38:11;;;;;;;38.50;17.80;;;;;;;-4.08;79.50;100245.38;1757519;80;21586;-72
2020/12/12 07:40:40;;;;;;;42.60;20.37;;;;;;;-4.10;79.48;100245.75;1751554;81;22295;-72
2020/12/12 07:43:09;;;;;;;47.33;20.90;;;;;;;-4.07;79.56;100250.98;1750368;80;21198;-71
2020/12/12 07:48:26;;;;;;;42.17;20.27;;;;;;;-4.06;79.59;100244.13;1750072;81;21626;-73
2020/12/12 07:50:54;;;;;;;45.83;22.33;;;;;;;-4.05;79.63;100240.33;1738078;82;21188;-72
2020/12/12 07:53:21;;;;;;;40.77;19.57;;;;;;;-4.06;79.49;100241.14;1746043;82;22084;-71
2020/12/12 07:55:59;;;;;;;47.67;22.60;;;;;;;-4.04;79.67;100240.76;1749665;82;21766;-71
2020/12/12 07:58:29;;;;;;;44.57;21.40;;;;;;;-4.04;79.81;100236.91;1749654;82;21610;-71
2020/12/12 08:01:05;;;;;;;39.17;17.60;;;;;;;-4.04;79.92;100236.91;1749624;82;21151;-71
2020/12/12 08:03:44;;;;;;;41.30;18.23;;;;;;;-4.03;80.02;100242.91;1749323;82;21218;-72
2020/12/12 08:06:13;;;;;;;44.73;21.03;;;;;;;-3.99;80.08;100236.15;1745432;82;21397;-72
2020/12/12 08:08:40;;;;;;;50.50;21.70;;;;;;;-4.01;80.23;100238.25;1751262;79;22317;-72
2020/12/12 08:11:09;;;;;;;41.07;21.33;;;;;;;-3.99;80.34;100231.00;1754018;80;21667;-72
2020/12/12 08:13:37;;;;;;;38.93;18.77;;;;;;;-3.95;80.16;100231.53;1749339;80;21707;-70
2020/12/12 08:18:39;;;;;;;60.57;28.70;;;;;;;-3.87;80.31;100238.57;1748575;81;21216;-72
2020/12/12 08:21:16;;;;;;;41.77;20.23;;;;;;;-3.84;80.41;100227.51;1694439;82;21870;-72
2020/12/12 08:23:44;;;;;;;42.27;18.77;;;;;;;-3.83;80.22;100227.94;1694295;82;21179;-73
2020/12/12 08:26:19;;;;;;;47.83;21.57;;;;;;;-3.85;80.40;100227.03;1698999;84;21216;-72
2020/12/12 08:28:48;;;;;;;49.73;22.40;;;;;;;-3.87;80.61;100232.56;1698638;84;21184;-72
2020/12/12 08:31:19;;;;;;;45.63;19.03;;;;;;;-3.82;80.97;100234.42;1705831;84;22201;-73
2020/12/12 08:33:56;;;;;;;45.20;19.93;;;;;;;-3.77;81.07;100237.48;1722392;81;21227;-73
2020/12/12 08:36:30;;;;;;;47.13;22.50;;;;;;;-3.76;80.76;100233.67;1743183;80;21184;-73
2020/12/12 08:39:06;;;;;;;42.23;19.80;;;;;;;-3.77;80.70;100235.81;1699177;82;21159;-71
2020/12/12 08:41:37;;;;;;;47.00;19.67;;;;;;;-3.74;81.12;100233.72;1679800;84;21297;-72
2020/12/12 08:44:06;;;;;;;48.93;20.70;;;;;;;-3.75;80.98;100225.14;1673899;83;35250;-73
2020/12/12 08:46:34;;;;;;;46.27;22.27;;;;;;;-3.75;80.94;100223.85;1703669;83;21155;-72
2020/12/12 08:49:14;;;;;;;43.87;18.83;;;;;;;-3.80;80.70;100235.72;1699675;80;21198;-74
2020/12/12 08:51:42;;;;;;;48.57;22.57;;;;;;;-3.80;80.77;100231.86;1621403;87;21637;-65
2020/12/12 08:54:14;;;;;;;37.70;18.57;;;;;;;-3.78;80.96;100235.77;1597897;87;22424;-64
2020/12/12 08:56:44;;;;;;;36.63;18.53;;;;;;;-3.82;80.15;100232.24;1619552;87;21412;-66
2020/12/12 08:59:21;;;;;;;36.23;17.77;;;;;;;-3.88;80.18;100228.27;1650837;86;21218;-67
2020/12/12 09:01:49;;;;;;;38.07;18.13;;;;;;;-3.93;80.54;100220.86;1663996;86;21239;-66
2020/12/12 09:04:20;;;;;;;41.93;21.33;;;;;;;-3.94;80.56;100224.25;1647181;87;21177;-66
2020/12/12 09:06:56;;;;;;;44.23;19.63;;;;;;;-3.99;81.00;100223.28;1662933;86;21625;-66
2020/12/12 09:09:31;;;;;;;31.63;16.70;;;;;;;-3.97;81.11;100221.62;1646510;86;21903;-66
2020/12/12 09:12:05;;;;;;;49.90;19.87;;;;;;;-3.96;80.68;100222.06;1662459;86;21609;-72
2020/12/12 09:14:43;;;;;;;37.50;17.80;;;;;;;-3.98;80.72;100222.44;1646292;87;21635;-70
2020/12/12 09:17:14;;;;;;;41.17;19.80;;;;;;;-3.98;80.82;100226.30;1646585;87;21221;-70
2020/12/12 09:19:42;;;;;;;43.13;19.57;;;;;;;-3.98;80.99;100218.58;1662812;86;21213;-71
2020/12/12 09:22:12;;;;;;;54.30;20.08;;;;;;;-3.95;81.00;100214.81;1647108;86;21245;-70
2020/12/12 09:24:40;;;;;;;43.93;18.17;;;;;;;-3.93;81.01;100219.58;1620053;88;21249;-69
2020/12/12 09:27:12;;;;;;;42.43;18.53;;;;;;;-4.01;80.46;100208.66;1619485;88;22235;-69
2020/12/12 09:29:39;;;;;;;43.93;18.67;;;;;;;-3.96;80.75;100205.34;1663655;86;21160;-68
2020/12/12 09:32:07;;;;;;;49.87;20.90;;;;;;;-3.94;80.90;100208.81;1646183;86;22291;-68
2020/12/12 09:34:37;;;;;;;72.37;28.77;;;;;;;-3.89;81.31;100212.36;1663878;86;22826;-70
2020/12/12 09:37:05;;;;;;;45.65;22.10;;;;;;;-3.85;81.19;100202.59;1647118;87;21198;-70
2020/12/12 09:39:35;;;;;;;46.57;22.93;;;;;;;-3.84;80.73;100209.50;1651968;86;21247;-69
2020/12/12 09:42:03;;;;;;;41.23;20.32;;;;;;;-3.89;80.11;100204.64;1610637;89;21207;-70
2020/12/12 09:44:32;;;;;;;35.00;14.93;;;;;;;-3.91;80.63;100196.01;1636697;87;21659;-70
2020/12/12 09:46:59;;;;;;;38.50;17.77;;;;;;;-3.94;79.92;100198.52;1636791;87;21631;-71
2020/12/12 09:49:28;;;;;;;34.73;16.63;;;;;;;-3.92;80.32;100199.44;1636663;87;21224;-70
2020/12/12 09:51:56;;;;;;;37.33;18.20;;;;;;;-3.91;80.47;100196.91;1642385;87;21192;-70
2020/12/12 09:54:24;;;;;;;41.10;19.27;;;;;;;-3.89;80.47;100197.81;1642548;87;21224;-70
2020/12/12 09:56:52;;;;;;;42.23;18.73;;;;;;;-3.86;80.67;100195.72;1642490;87;21447;-68
2020/12/12 09:59:19;;;;;;;38.50;18.33;;;;;;;-3.84;80.66;100185.05;1642461;87;21886;-70
2020/12/12 10:01:48;;;;;;;40.30;20.53;;;;;;;-3.83;80.79;100186.77;1642241;87;21220;-70
2020/12/12 10:04:16;;;;;;;39.13;18.80;;;;;;;-3.78;81.12;100183.88;1642427;87;21196;-69
2020/12/12 10:06:44;;;;;;;47.47;20.47;;;;;;;-3.75;80.70;100171.48;1642464;87;21683;-68
2020/12/12 10:09:11;;;;;;;42.63;19.53;;;;;;;-3.73;80.95;100168.11;1664396;85;21202;-69
2020/12/12 10:11:41;;;;;;;41.77;18.07;;;;;;;-3.71;80.95;100169.44;1681750;85;21598;-70
2020/12/12 10:14:10;;;;;;;33.77;16.40;;;;;;;-3.74;79.88;100170.24;1681736;85;21215;-68
2020/12/12 10:16:38;;;;;;;39.83;17.90;;;;;;;-3.75;79.46;100162.09;1681879;85;21211;-68
2020/12/12 10:19:06;;;;;;;40.13;18.40;;;;;;;-3.75;79.82;100159.52;1681791;85;21667;-70
2020/12/12 10:21:37;;;;;;;;;;;;;;;-3.73;79.81;100151.80;1684331;85;21203;-67
2020/12/12 10:24:07;;;;;;;52.53;19.60;;;;;;;-3.72;80.05;100153.13;1681860;85;21819;-68
2020/12/12 10:26:35;;;;;;;44.30;17.93;;;;;;;-3.70;79.83;100150.60;1681853;85;21633;-70
2020/12/12 10:29:03;;;;;;;45.37;19.23;;;;;;;-3.71;79.63;100160.00;1681827;85;21131;-70
2020/12/12 10:31:34;;;;;;;39.60;17.77;;;;;;;-3.71;79.13;100163.86;1681806;85;21175;-70
2020/12/12 10:34:02;;;;;;;44.23;17.13;;;;;;;-3.74;78.84;100157.38;1654332;85;21646;-69
2020/12/12 10:36:29;;;;;;;36.30;17.00;;;;;;;-3.76;78.84;100155.19;1655906;85;21680;-70
2020/12/12 10:38:57;;;;;;;39.33;18.37;;;;;;;-3.78;78.60;100146.56;1665441;85;21199;-70
2020/12/12 10:41:28;;;;;;;53.57;22.07;;;;;;;-3.81;78.85;100137.50;1642814;87;21186;-68
2020/12/12 10:43:56;;;;;;;40.43;18.33;;;;;;;-3.81;79.67;100133.64;1620663;87;21186;-68
2020/12/12 10:46:24;;;;;;;39.57;17.40;;;;;;;-3.82;79.18;100146.93;1642562;87;21154;-67
2020/12/12 10:48:52;;;;;;;35.43;16.27;;;;;;;-3.86;78.97;100150.69;1642450;87;21401;-68
2020/12/12 10:51:20;;;;;;;38.97;16.90;;;;;;;-3.87;79.17;100147.66;1642459;87;21688;-67
2020/12/12 10:53:49;;;;;;;39.73;16.83;;;;;;;-3.92;79.14;100148.84;1642347;87;21222;-67
2020/12/12 10:56:17;;;;;;;35.40;16.70;;;;;;;-3.93;79.24;100143.68;1642490;87;21178;-67
2020/12/12 10:58:45;;;;;;;44.53;21.27;;;;;;;-3.94;79.12;100144.50;1642464;87;21226;-68
2020/12/12 11:01:13;;;;;;;55.83;26.70;;;;;;;-3.95;79.56;100137.62;1654290;85;21414;-70
2020/12/12 11:03:42;;;;;;;37.27;17.47;;;;;;;-3.94;80.28;100136.78;1648620;87;21652;-66
2020/12/12 11:06:11;;;;;;;46.87;19.83;;;;;;;-3.91;80.45;100134.27;1669627;85;21230;-66
2020/12/12 11:08:39;;;;;;;46.67;18.53;;;;;;;-3.89;80.31;100130.91;1673558;85;21194;-67
2020/12/12 11:11:08;;;;;;;43.97;19.17;;;;;;;-3.88;80.03;100137.78;1681722;85;21171;-65
2020/12/12 11:13:38;;;;;;;45.57;19.17;;;;;;;-3.90;80.22;100131.73;1658065;85;22161;-68
2020/12/12 11:16:08;;;;;;;37.93;17.47;;;;;;;-3.90;79.90;100133.45;1681804;85;21223;-68
2020/12/12 11:18:36;;;;;;;49.67;20.97;;;;;;;-3.90;79.67;100137.30;1681831;85;22372;-64
2020/12/12 11:21:03;;;;;;;46.70;19.57;;;;;;;-3.93;80.03;100131.67;1681658;85;21155;-65
2020/12/12 11:23:32;;;;;;;48.67;22.97;;;;;;;-3.95;79.87;100138.91;1681729;85;21606;-66
2020/12/12 11:25:59;;;;;;;55.03;24.63;;;;;;;-3.97;80.38;100130.29;1681754;85;22107;-65
2020/12/12 11:28:27;;;;;;;53.67;21.50;;;;;;;-3.95;80.67;100128.63;1681672;85;21662;-66
2020/12/12 11:30:57;;;;;;;53.13;21.67;;;;;;;-3.93;80.52;100130.39;1681921;85;21210;-67